createdAt,value
2016-12-22T00:00:29.062Z,0
2016-12-22T00:01:29.041Z,0
2016-12-22T00:02:29.015Z,0
2016-12-22T00:03:28.996Z,0
2016-12-22T00:04:28.985Z,0
2016-12-22T00:05:28.966Z,0
2016-12-22T00:06:28.938Z,0
2016-12-22T00:07:28.948Z,0
2016-12-22T00:08:28.915Z,0
2016-12-22T00:09:29.199Z,0
2016-12-22T00:10:28.879Z,0
2016-12-22T00:11:28.852Z,0
2016-12-22T00:12:28.842Z,0
2016-12-22T00:13:28.812Z,0
2016-12-22T00:14:28.794Z,0
2016-12-22T00:15:28.780Z,0
2016-12-22T00:16:28.760Z,0
2016-12-22T00:17:28.739Z,0
2016-12-22T00:18:28.727Z,0
2016-12-22T00:19:28.701Z,0
2016-12-22T00:20:28.693Z,0
2016-12-22T00:21:28.670Z,0
2016-12-22T00:22:28.648Z,0
2016-12-22T00:23:28.628Z,0
2016-12-22T00:24:28.616Z,0
2016-12-22T00:25:28.596Z,0
2016-12-22T00:26:28.576Z,0
2016-12-22T00:27:28.561Z,0
2016-12-22T00:28:28.541Z,0
2016-12-22T00:29:28.519Z,0
2016-12-22T00:30:28.501Z,0
2016-12-22T00:31:28.483Z,0
2016-12-22T00:32:29.088Z,0
2016-12-22T00:33:28.440Z,0
2016-12-22T00:34:28.433Z,0
2016-12-22T00:35:28.409Z,0
2016-12-22T00:36:28.390Z,0
2016-12-22T00:37:28.367Z,0
2016-12-22T00:38:28.354Z,0
2016-12-22T00:39:28.333Z,0
2016-12-22T00:40:28.315Z,0
2016-12-22T00:41:28.297Z,0
2016-12-22T00:42:28.276Z,0
2016-12-22T00:43:28.261Z,0
2016-12-22T00:44:28.248Z,0
2016-12-22T00:45:28.227Z,0
2016-12-22T00:46:28.215Z,0
2016-12-22T00:47:28.185Z,0
2016-12-22T00:48:28.169Z,0
2016-12-22T00:49:28.151Z,0
2016-12-22T00:50:28.136Z,0
2016-12-22T00:51:28.119Z,0
2016-12-22T00:52:28.097Z,0
2016-12-22T00:53:28.087Z,0
2016-12-22T00:54:28.057Z,0
2016-12-22T00:55:28.355Z,0
2016-12-22T00:56:28.021Z,0
2016-12-22T00:57:28.007Z,0
2016-12-22T00:58:27.989Z,0
2016-12-22T00:59:27.974Z,0
2016-12-22T01:00:28.057Z,0
2016-12-22T01:01:27.934Z,0
2016-12-22T01:02:27.915Z,0
2016-12-22T01:03:27.891Z,0
2016-12-22T01:04:27.880Z,0
2016-12-22T01:05:27.859Z,0
2016-12-22T01:06:27.839Z,0
2016-12-22T01:07:27.823Z,0
2016-12-22T01:08:27.802Z,0
2016-12-22T01:09:27.786Z,0
2016-12-22T01:10:27.763Z,0
2016-12-22T01:11:27.747Z,0
2016-12-22T01:12:27.732Z,0
2016-12-22T01:13:27.711Z,0
2016-12-22T01:14:27.694Z,0
2016-12-22T01:15:27.677Z,0
2016-12-22T01:16:27.657Z,0
2016-12-22T01:17:27.954Z,0
2016-12-22T01:18:27.623Z,0
2016-12-22T01:19:27.605Z,0
2016-12-22T01:20:27.583Z,0
2016-12-22T01:21:27.566Z,0
2016-12-22T01:22:27.576Z,0
2016-12-22T01:23:27.523Z,0
2016-12-22T01:24:27.507Z,0
2016-12-22T01:25:27.492Z,0
2016-12-22T01:26:27.470Z,0
2016-12-22T01:27:27.452Z,0
2016-12-22T01:28:27.438Z,0
2016-12-22T01:29:27.461Z,0
2016-12-22T01:30:27.398Z,0
2016-12-22T01:31:27.377Z,0
2016-12-22T01:32:27.362Z,0
2016-12-22T01:33:27.344Z,0
2016-12-22T01:34:27.319Z,0
2016-12-22T01:35:27.312Z,0
2016-12-22T01:36:27.290Z,0
2016-12-22T01:37:27.271Z,0
2016-12-22T01:38:27.253Z,0
2016-12-22T01:39:27.235Z,0
2016-12-22T01:40:27.216Z,0
2016-12-22T01:41:27.198Z,0
2016-12-22T01:42:27.179Z,0
2016-12-22T01:43:27.157Z,0
2016-12-22T01:44:27.142Z,0
2016-12-22T01:45:27.456Z,0
2016-12-22T01:46:27.100Z,0
2016-12-22T01:47:27.087Z,0
2016-12-22T01:48:27.064Z,0
2016-12-22T01:49:27.048Z,0
2016-12-22T01:50:27.032Z,0
2016-12-22T01:51:27.015Z,0
2016-12-22T01:52:26.994Z,0
2016-12-22T01:53:26.972Z,0
2016-12-22T01:54:26.957Z,0
2016-12-22T01:55:26.938Z,0
2016-12-22T01:56:26.955Z,0
2016-12-22T01:57:26.911Z,0
2016-12-22T01:58:26.882Z,0
2016-12-22T01:59:26.863Z,0
2016-12-22T02:00:26.852Z,0
2016-12-22T02:01:26.829Z,0
2016-12-22T02:02:26.812Z,0
2016-12-22T02:03:26.790Z,0
2016-12-22T02:04:26.775Z,0
2016-12-22T02:05:27.321Z,0
2016-12-22T02:06:26.732Z,0
2016-12-22T02:07:26.712Z,0
2016-12-22T02:08:26.700Z,0
2016-12-22T02:09:26.674Z,0
2016-12-22T02:10:26.901Z,0
2016-12-22T02:11:26.651Z,0
2016-12-22T02:12:26.621Z,0
2016-12-22T02:13:26.603Z,0
2016-12-22T02:14:26.583Z,0
2016-12-22T02:15:26.565Z,0
2016-12-22T02:16:26.548Z,0
2016-12-22T02:17:26.532Z,0
2016-12-22T02:18:26.509Z,0
2016-12-22T02:19:26.491Z,0
2016-12-22T02:20:26.479Z,0
2016-12-22T02:21:27.041Z,0
2016-12-22T02:22:26.635Z,0
2016-12-22T02:23:26.649Z,0
2016-12-22T02:24:26.400Z,0
2016-12-22T02:25:26.386Z,0
2016-12-22T02:26:26.362Z,0
2016-12-22T02:27:26.349Z,0
2016-12-22T02:28:26.325Z,0
2016-12-22T02:29:26.308Z,0
2016-12-22T02:30:26.290Z,0
2016-12-22T02:31:26.274Z,0
2016-12-22T02:32:26.258Z,0
2016-12-22T02:33:26.233Z,0
2016-12-22T02:34:26.217Z,0
2016-12-22T02:35:26.195Z,0
2016-12-22T02:36:26.229Z,0
2016-12-22T02:37:26.187Z,0
2016-12-22T02:38:26.138Z,0
2016-12-22T02:39:26.155Z,0
2016-12-22T02:40:26.101Z,0
2016-12-22T02:41:26.137Z,0
2016-12-22T02:42:26.068Z,0
2016-12-22T02:43:26.045Z,0
2016-12-22T02:44:26.029Z,0
2016-12-22T02:45:26.013Z,0
2016-12-22T02:46:26.043Z,0
2016-12-22T02:47:25.971Z,0
2016-12-22T02:48:25.986Z,0
2016-12-22T02:49:25.932Z,0
2016-12-22T02:50:25.916Z,0
2016-12-22T02:51:25.901Z,0
2016-12-22T02:52:25.879Z,0
2016-12-22T02:53:25.861Z,0
2016-12-22T02:54:25.844Z,0
2016-12-22T02:55:26.140Z,0
2016-12-22T02:56:25.806Z,0
2016-12-22T02:57:25.788Z,0
2016-12-22T02:58:25.776Z,0
2016-12-22T02:59:25.745Z,0
2016-12-22T03:00:25.732Z,0
2016-12-22T03:01:25.716Z,0
2016-12-22T03:02:25.693Z,0
2016-12-22T03:03:25.676Z,0
2016-12-22T03:04:25.970Z,0
2016-12-22T03:05:25.647Z,0
2016-12-22T03:06:25.619Z,0
2016-12-22T03:07:25.610Z,0
2016-12-22T03:08:25.584Z,0
2016-12-22T03:09:25.563Z,0
2016-12-22T03:10:25.580Z,0
2016-12-22T03:11:25.527Z,0
2016-12-22T03:12:25.507Z,0
2016-12-22T03:13:25.494Z,0
2016-12-22T03:14:25.471Z,0
2016-12-22T03:15:25.457Z,0
2016-12-22T03:16:25.436Z,0
2016-12-22T03:17:25.415Z,0
2016-12-22T03:18:25.396Z,0
2016-12-22T03:19:25.381Z,0
2016-12-22T03:20:25.356Z,0
2016-12-22T03:21:25.337Z,0
2016-12-22T03:22:25.322Z,0
2016-12-22T03:23:25.303Z,0
2016-12-22T03:24:25.285Z,0
2016-12-22T03:25:25.265Z,0
2016-12-22T03:26:25.248Z,0
2016-12-22T03:27:25.226Z,0
2016-12-22T03:28:25.214Z,0
2016-12-22T03:29:25.189Z,0
2016-12-22T03:30:25.175Z,0
2016-12-22T03:31:25.155Z,0
2016-12-22T03:32:25.135Z,0
2016-12-22T03:33:25.116Z,0
2016-12-22T03:34:25.106Z,0
2016-12-22T03:35:25.396Z,0
2016-12-22T03:36:25.062Z,0
2016-12-22T03:37:25.045Z,0
2016-12-22T03:38:25.026Z,0
2016-12-22T03:39:25.009Z,0
2016-12-22T03:40:24.988Z,0
2016-12-22T03:41:25.008Z,0
2016-12-22T03:42:24.965Z,0
2016-12-22T03:43:24.951Z,0
2016-12-22T03:44:24.909Z,0
2016-12-22T03:45:24.895Z,0
2016-12-22T03:46:24.883Z,0
2016-12-22T03:47:24.860Z,0
2016-12-22T03:48:24.838Z,0
2016-12-22T03:49:24.819Z,0
2016-12-22T03:50:24.805Z,0
2016-12-22T03:51:24.781Z,0
2016-12-22T03:52:24.795Z,0
2016-12-22T03:53:24.747Z,0
2016-12-22T03:54:24.727Z,0
2016-12-22T03:55:24.707Z,0
2016-12-22T03:56:24.687Z,0
2016-12-22T03:57:24.670Z,0
2016-12-22T03:58:24.653Z,0
2016-12-22T03:59:24.638Z,0
2016-12-22T04:00:24.624Z,0
2016-12-22T04:01:24.594Z,0
2016-12-22T04:02:24.585Z,0
2016-12-22T04:03:24.561Z,0
2016-12-22T04:04:24.542Z,0
2016-12-22T04:05:24.522Z,0
2016-12-22T04:06:24.506Z,0
2016-12-22T04:07:24.488Z,0
2016-12-22T04:08:24.470Z,0
2016-12-22T04:09:24.448Z,0
2016-12-22T04:10:24.429Z,0
2016-12-22T04:11:24.412Z,0
2016-12-22T04:12:24.397Z,0
2016-12-22T04:13:24.380Z,0
2016-12-22T04:14:24.355Z,0
2016-12-22T04:15:24.372Z,0
2016-12-22T04:16:24.318Z,0
2016-12-22T04:17:24.300Z,0
2016-12-22T04:18:24.596Z,0
2016-12-22T04:19:24.263Z,0
2016-12-22T04:20:24.248Z,0
2016-12-22T04:21:24.225Z,0
2016-12-22T04:22:24.208Z,0
2016-12-22T04:23:24.190Z,0
2016-12-22T04:24:24.174Z,0
2016-12-22T04:25:24.158Z,0
2016-12-22T04:26:24.131Z,0
2016-12-22T04:27:24.116Z,0
2016-12-22T04:28:24.410Z,0
2016-12-22T04:29:24.077Z,0
2016-12-22T04:30:24.064Z,0
2016-12-22T04:31:24.042Z,0
2016-12-22T04:32:24.021Z,0
2016-12-22T04:33:24.009Z,0
2016-12-22T04:34:23.987Z,0
2016-12-22T04:35:23.968Z,0
2016-12-22T04:36:23.948Z,0
2016-12-22T04:37:23.932Z,0
2016-12-22T04:38:23.917Z,0
2016-12-22T04:39:24.208Z,0
2016-12-22T04:40:23.874Z,0
2016-12-22T04:41:23.857Z,0
2016-12-22T04:42:23.835Z,0
2016-12-22T04:43:24.135Z,0
2016-12-22T04:44:23.803Z,0
2016-12-22T04:45:23.781Z,0
2016-12-22T04:46:23.762Z,0
2016-12-22T04:47:23.742Z,0
2016-12-22T04:48:23.728Z,0
2016-12-22T04:49:23.706Z,0
2016-12-22T04:50:23.690Z,0
2016-12-22T04:51:23.668Z,0
2016-12-22T04:52:23.653Z,0
2016-12-22T04:53:23.630Z,0
2016-12-22T04:54:23.614Z,0
2016-12-22T04:55:23.594Z,0
2016-12-22T04:56:23.579Z,0
2016-12-22T04:57:23.561Z,0
2016-12-22T04:58:23.539Z,0
2016-12-22T04:59:23.522Z,0
2016-12-22T05:00:23.511Z,0
2016-12-22T05:01:23.484Z,0
2016-12-22T05:02:23.467Z,0
2016-12-22T05:03:23.444Z,0
2016-12-22T05:04:23.425Z,0
2016-12-22T05:05:23.411Z,0
2016-12-22T05:06:23.391Z,0
2016-12-22T05:07:23.374Z,0
2016-12-22T05:08:23.354Z,0
2016-12-22T05:09:23.334Z,0
2016-12-22T05:10:23.319Z,0
2016-12-22T05:11:23.301Z,0
2016-12-22T05:12:23.277Z,0
2016-12-22T05:13:23.264Z,0
2016-12-22T05:14:23.246Z,0
2016-12-22T05:15:23.223Z,0
2016-12-22T05:16:23.519Z,0
2016-12-22T05:17:23.186Z,0
2016-12-22T05:18:23.167Z,0
2016-12-22T05:19:23.157Z,0
2016-12-22T05:20:23.133Z,0
2016-12-22T05:21:23.114Z,0
2016-12-22T05:22:23.096Z,0
2016-12-22T05:23:23.099Z,0
2016-12-22T05:24:23.054Z,0
2016-12-22T05:25:23.041Z,0
2016-12-22T05:26:23.019Z,0
2016-12-22T05:27:23.000Z,0
2016-12-22T05:28:22.985Z,0
2016-12-22T05:29:22.963Z,0
2016-12-22T05:30:22.946Z,0
2016-12-22T05:31:22.931Z,0
2016-12-22T05:32:22.902Z,0
2016-12-22T05:33:22.892Z,0
2016-12-22T05:34:22.868Z,0
2016-12-22T05:35:22.849Z,0
2016-12-22T05:36:22.832Z,0
2016-12-22T05:37:22.824Z,0
2016-12-22T05:38:22.799Z,0
2016-12-22T05:39:22.776Z,0
2016-12-22T05:40:22.764Z,0
2016-12-22T05:41:22.743Z,0
2016-12-22T05:42:22.725Z,0
2016-12-22T05:43:22.703Z,0
2016-12-22T05:44:22.710Z,0
2016-12-22T05:45:22.666Z,0
2016-12-22T05:46:22.647Z,0
2016-12-22T05:47:22.624Z,0
2016-12-22T05:48:22.611Z,0
2016-12-22T05:49:22.594Z,0
2016-12-22T05:50:22.570Z,0
2016-12-22T05:51:22.559Z,0
2016-12-22T05:52:22.535Z,0
2016-12-22T05:53:22.516Z,0
2016-12-22T05:54:22.500Z,0
2016-12-22T05:55:22.476Z,0
2016-12-22T05:56:22.461Z,0
2016-12-22T05:57:22.759Z,0
2016-12-22T05:58:22.747Z,0
2016-12-22T05:59:22.408Z,0
2016-12-22T06:00:22.385Z,0
2016-12-22T06:01:22.370Z,0
2016-12-22T06:02:22.350Z,0
2016-12-22T06:03:22.331Z,0
2016-12-22T06:04:22.627Z,0
2016-12-22T06:05:22.290Z,0
2016-12-22T06:06:22.275Z,0
2016-12-22T06:07:22.253Z,0
2016-12-22T06:08:22.234Z,0
2016-12-22T06:09:22.218Z,0
2016-12-22T06:10:22.196Z,0
2016-12-22T06:11:22.181Z,0
2016-12-22T06:12:22.162Z,0
2016-12-22T06:13:22.137Z,0
2016-12-22T06:14:22.127Z,0
2016-12-22T06:15:22.104Z,0
2016-12-22T06:16:22.085Z,0
2016-12-22T06:17:22.069Z,0
2016-12-22T06:18:22.046Z,0
2016-12-22T06:19:22.033Z,0
2016-12-22T06:20:22.013Z,0
2016-12-22T06:21:21.988Z,0
2016-12-22T06:22:21.977Z,0
2016-12-22T06:23:21.953Z,0
2016-12-22T06:24:21.946Z,0
2016-12-22T06:25:21.913Z,0
2016-12-22T06:26:21.899Z,0
2016-12-22T06:27:21.877Z,0
2016-12-22T06:28:21.861Z,0
2016-12-22T06:29:21.840Z,0
2016-12-22T06:30:21.824Z,0
2016-12-22T06:31:21.806Z,4
2016-12-22T06:32:21.788Z,4
2016-12-22T06:33:21.770Z,0
2016-12-22T06:34:21.746Z,0
2016-12-22T06:35:21.724Z,4
2016-12-22T06:36:21.711Z,0
2016-12-22T06:37:21.698Z,4
2016-12-22T06:38:21.670Z,4
2016-12-22T06:39:21.677Z,4
2016-12-22T06:40:21.634Z,4
2016-12-22T06:41:21.613Z,4
2016-12-22T06:42:21.592Z,8
2016-12-22T06:43:21.581Z,8
2016-12-22T06:44:21.560Z,8
2016-12-22T06:45:21.544Z,12
2016-12-22T06:46:21.517Z,16
2016-12-22T06:47:21.497Z,16
2016-12-22T06:48:21.480Z,20
2016-12-22T06:49:21.462Z,24
2016-12-22T06:50:21.445Z,28
2016-12-22T06:51:21.428Z,32
2016-12-22T06:52:21.416Z,36
2016-12-22T06:53:21.388Z,40
2016-12-22T06:54:21.371Z,48
2016-12-22T06:55:21.354Z,56
2016-12-22T06:56:21.332Z,68
2016-12-22T06:57:21.306Z,76
2016-12-22T06:58:21.298Z,88
2016-12-22T06:59:21.274Z,96
2016-12-22T07:00:21.258Z,104
2016-12-22T07:01:21.235Z,120
2016-12-22T07:02:21.221Z,128
2016-12-22T07:03:21.199Z,136
2016-12-22T07:04:21.178Z,148
2016-12-22T07:05:21.163Z,160
2016-12-22T07:06:21.145Z,172
2016-12-22T07:07:21.120Z,192
2016-12-22T07:08:21.104Z,208
2016-12-22T07:09:21.084Z,228
2016-12-22T07:10:21.069Z,248
2016-12-22T07:11:21.048Z,268
2016-12-22T07:12:21.027Z,292
2016-12-22T07:13:21.008Z,312
2016-12-22T07:14:20.993Z,324
2016-12-22T07:15:20.969Z,344
2016-12-22T07:16:20.950Z,356
2016-12-22T07:17:20.935Z,376
2016-12-22T07:18:21.236Z,392
2016-12-22T07:19:20.892Z,412
2016-12-22T07:20:20.878Z,432
2016-12-22T07:21:20.860Z,452
2016-12-22T07:22:20.844Z,468
2016-12-22T07:23:20.821Z,492
2016-12-22T07:24:20.806Z,512
2016-12-22T07:25:20.787Z,540
2016-12-22T07:26:20.763Z,572
2016-12-22T07:27:20.746Z,596
2016-12-22T07:28:20.723Z,628
2016-12-22T07:29:20.710Z,656
2016-12-22T07:30:20.687Z,688
2016-12-22T07:31:20.719Z,716
2016-12-22T07:32:20.656Z,740
2016-12-22T07:33:20.638Z,764
2016-12-22T07:34:20.620Z,792
2016-12-22T07:35:20.594Z,824
2016-12-22T07:36:20.577Z,852
2016-12-22T07:37:20.555Z,880
2016-12-22T07:38:20.538Z,908
2016-12-22T07:39:20.522Z,940
2016-12-22T07:40:20.501Z,960
2016-12-22T07:41:20.516Z,980
2016-12-22T07:42:20.461Z,1004
2016-12-22T07:43:20.439Z,1020
2016-12-22T07:44:20.449Z,1036
2016-12-22T07:45:20.401Z,1064
2016-12-22T07:46:20.698Z,1092
2016-12-22T07:47:20.694Z,1124
2016-12-22T07:48:20.341Z,1156
2016-12-22T07:49:20.334Z,1180
2016-12-22T07:50:20.311Z,1204
2016-12-22T07:51:20.293Z,1228
2016-12-22T07:52:20.266Z,1248
2016-12-22T07:53:20.248Z,1276
2016-12-22T07:54:20.234Z,1304
2016-12-22T07:55:20.214Z,1328
2016-12-22T07:56:20.196Z,1352
2016-12-22T07:57:20.177Z,1372
2016-12-22T07:58:20.160Z,1396
2016-12-22T07:59:20.142Z,1420
2016-12-22T08:00:20.119Z,1448
2016-12-22T08:01:20.102Z,1472
2016-12-22T08:02:20.081Z,1496
2016-12-22T08:03:20.064Z,1516
2016-12-22T08:04:20.041Z,1528
2016-12-22T08:05:20.027Z,1544
2016-12-22T08:06:20.040Z,1568
2016-12-22T08:07:19.988Z,1592
2016-12-22T08:08:19.971Z,1600
2016-12-22T08:09:19.950Z,1604
2016-12-22T08:10:19.930Z,1608
2016-12-22T08:11:19.906Z,1604
2016-12-22T08:12:19.893Z,1600
2016-12-22T08:13:19.906Z,1604
2016-12-22T08:14:19.857Z,1596
2016-12-22T08:15:19.839Z,1604
2016-12-22T08:16:19.818Z,1624
2016-12-22T08:17:19.800Z,1656
2016-12-22T08:18:19.779Z,1672
2016-12-22T08:19:20.088Z,1708
2016-12-22T08:20:19.736Z,1760
2016-12-22T08:21:20.059Z,1780
2016-12-22T08:22:20.020Z,1792
2016-12-22T08:23:19.710Z,1792
2016-12-22T08:24:19.694Z,1796
2016-12-22T08:25:19.652Z,1784
2016-12-22T08:26:19.628Z,1780
2016-12-22T08:27:19.644Z,1788
2016-12-22T08:28:19.588Z,1792
2016-12-22T08:29:19.571Z,1796
2016-12-22T08:30:19.554Z,1820
2016-12-22T08:31:19.536Z,1852
2016-12-22T08:32:19.548Z,1880
2016-12-22T08:33:19.493Z,1892
2016-12-22T08:34:19.478Z,1892
2016-12-22T08:35:19.466Z,1884
2016-12-22T08:36:19.442Z,1876
2016-12-22T08:37:19.418Z,1856
2016-12-22T08:38:19.400Z,1848
2016-12-22T08:39:19.385Z,1844
2016-12-22T08:40:19.366Z,1844
2016-12-22T08:41:19.347Z,1840
2016-12-22T08:42:19.328Z,1856
2016-12-22T08:43:19.345Z,1880
2016-12-22T08:44:19.314Z,1872
2016-12-22T08:45:19.302Z,1844
2016-12-22T08:46:19.249Z,1856
2016-12-22T08:47:19.238Z,1896
2016-12-22T08:48:19.216Z,1908
2016-12-22T08:49:19.197Z,1896
2016-12-22T08:50:19.183Z,1892
2016-12-22T08:51:19.172Z,1888
2016-12-22T08:52:19.142Z,1884
2016-12-22T08:53:19.124Z,1880
2016-12-22T08:54:19.109Z,1868
2016-12-22T08:55:19.089Z,1852
2016-12-22T08:56:19.068Z,1832
2016-12-22T08:57:19.055Z,1816
2016-12-22T08:58:19.041Z,1808
2016-12-22T08:59:19.021Z,1788
2016-12-22T09:00:18.998Z,1792
2016-12-22T09:01:18.981Z,1796
2016-12-22T09:02:18.959Z,1788
2016-12-22T09:03:18.943Z,1788
2016-12-22T09:04:18.927Z,1776
2016-12-22T09:05:18.910Z,1776
2016-12-22T09:06:18.895Z,1804
2016-12-22T09:07:18.875Z,1824
2016-12-22T09:08:18.862Z,1836
2016-12-22T09:09:18.838Z,1864
2016-12-22T09:10:18.816Z,1888
2016-12-22T09:11:18.797Z,1912
2016-12-22T09:12:19.100Z,1916
2016-12-22T09:13:18.760Z,1920
2016-12-22T09:14:18.741Z,1912
2016-12-22T09:15:18.723Z,1904
2016-12-22T09:16:18.705Z,1900
2016-12-22T09:17:18.686Z,1876
2016-12-22T09:21:28.416Z,1824
2016-12-22T09:22:25.197Z,1828
2016-12-22T09:23:24.259Z,1812
2016-12-22T09:24:24.227Z,1816
2016-12-22T09:25:24.218Z,1848
2016-12-22T09:26:24.195Z,1876
2016-12-22T09:27:24.179Z,1908
2016-12-22T09:28:24.159Z,1940
2016-12-22T09:29:24.139Z,1932
2016-12-22T09:30:24.124Z,1948
2016-12-22T09:31:24.104Z,1952
2016-12-22T09:32:24.087Z,1956
2016-12-22T09:33:24.067Z,1960
2016-12-22T09:34:24.049Z,1964
2016-12-22T09:35:24.032Z,1952
2016-12-22T09:36:24.012Z,1956
2016-12-22T09:37:23.993Z,1980
2016-12-22T09:38:23.976Z,2004
2016-12-22T09:39:23.955Z,2020
2016-12-22T09:40:23.939Z,2032
2016-12-22T09:41:23.923Z,2064
2016-12-22T09:42:23.900Z,2088
2016-12-22T09:43:23.887Z,2116
2016-12-22T09:44:23.866Z,2104
2016-12-22T09:45:23.849Z,2092
2016-12-22T09:46:23.826Z,2092
2016-12-22T09:47:23.810Z,2092
2016-12-22T09:48:23.794Z,2080
2016-12-22T09:49:23.777Z,2084
2016-12-22T09:50:23.761Z,2076
2016-12-22T09:51:24.063Z,2088
2016-12-22T09:52:23.722Z,2076
2016-12-22T09:53:23.707Z,2080
2016-12-22T09:54:23.683Z,2088
2016-12-22T09:55:23.671Z,2092
2016-12-22T09:56:23.648Z,2080
2016-12-22T09:57:23.633Z,2084
2016-12-22T09:58:23.613Z,2088
2016-12-22T09:59:23.910Z,2096
2016-12-22T10:00:23.581Z,2096
2016-12-22T10:01:23.560Z,2096
2016-12-22T10:02:23.543Z,2084
2016-12-22T10:03:23.520Z,2068
2016-12-22T10:04:23.507Z,2056
2016-12-22T10:05:23.829Z,2044
2016-12-22T10:06:23.469Z,2028
2016-12-22T10:07:23.448Z,2052
2016-12-22T10:08:23.442Z,2052
2016-12-22T10:09:23.412Z,2064
2016-12-22T10:10:23.390Z,2076
2016-12-22T10:11:23.387Z,2080
2016-12-22T10:12:23.365Z,2068
2016-12-22T10:13:23.341Z,2068
2016-12-22T10:14:23.324Z,2076
2016-12-22T10:15:23.311Z,2088
2016-12-22T10:16:23.290Z,2108
2016-12-22T10:17:23.272Z,2108
2016-12-22T10:18:23.588Z,2116
2016-12-22T10:19:23.237Z,2132
2016-12-22T10:20:23.220Z,2152
2016-12-22T10:21:23.202Z,2160
2016-12-22T10:22:23.180Z,2168
2016-12-22T10:23:23.162Z,2192
2016-12-22T10:24:23.148Z,2192
2016-12-22T10:25:23.128Z,2188
2016-12-22T10:26:23.113Z,2188
2016-12-22T10:27:23.098Z,2200
2016-12-22T10:28:23.398Z,2208
2016-12-22T10:29:23.058Z,2216
2016-12-22T10:30:23.042Z,2224
2016-12-22T10:31:23.022Z,2220
2016-12-22T10:32:23.008Z,2220
2016-12-22T10:33:22.988Z,2208
2016-12-22T10:34:22.971Z,2204
2016-12-22T10:35:22.964Z,2204
2016-12-22T10:36:22.950Z,2200
2016-12-22T10:37:23.252Z,2204
2016-12-22T10:38:22.907Z,2216
2016-12-22T10:39:22.891Z,2216
2016-12-22T10:40:22.874Z,2204
2016-12-22T10:41:22.856Z,2180
2016-12-22T10:42:22.831Z,2212
2016-12-22T10:43:23.137Z,2224
2016-12-22T10:44:23.133Z,2216
2016-12-22T10:45:22.779Z,2224
2016-12-22T10:46:22.763Z,2200
2016-12-22T10:47:22.757Z,2188
2016-12-22T10:48:22.720Z,2184
2016-12-22T10:49:22.708Z,2204
2016-12-22T10:50:22.694Z,2204
2016-12-22T10:51:22.671Z,2200
2016-12-22T10:52:22.659Z,2204
2016-12-22T10:53:22.642Z,2192
2016-12-22T10:54:22.621Z,2180
2016-12-22T10:55:22.602Z,2156
2016-12-22T10:56:22.586Z,2144
2016-12-22T10:57:22.583Z,2140
2016-12-22T10:58:22.554Z,2160
2016-12-22T10:59:22.538Z,2156
2016-12-22T11:00:22.523Z,2180
2016-12-22T11:01:22.502Z,2204
2016-12-22T11:02:22.488Z,2196
2016-12-22T11:03:22.468Z,2212
2016-12-22T11:04:22.459Z,2232
2016-12-22T11:05:22.436Z,2192
2016-12-22T11:06:22.415Z,2188
2016-12-22T11:07:22.715Z,2204
2016-12-22T11:08:22.390Z,2184
2016-12-22T11:09:22.367Z,2172
2016-12-22T11:10:22.354Z,2224
2016-12-22T11:11:22.340Z,2240
2016-12-22T11:12:22.316Z,2248
2016-12-22T11:13:22.617Z,2208
2016-12-22T11:14:22.287Z,2188
2016-12-22T11:15:22.307Z,2232
2016-12-22T11:16:22.253Z,2236
2016-12-22T11:17:22.234Z,2224
2016-12-22T11:18:22.220Z,2216
2016-12-22T11:19:22.206Z,2204
2016-12-22T11:20:22.201Z,2196
2016-12-22T11:21:22.170Z,2168
2016-12-22T11:22:22.159Z,2144
2016-12-22T11:23:22.139Z,2148
2016-12-22T11:24:22.121Z,2148
2016-12-22T11:25:22.106Z,2132
2016-12-22T11:26:22.090Z,2116
2016-12-22T11:27:22.073Z,2124
2016-12-22T11:28:22.059Z,2124
2016-12-22T11:29:22.037Z,2064
2016-12-22T11:30:22.021Z,2096
2016-12-22T11:31:22.009Z,2100
2016-12-22T11:32:22.021Z,2104
2016-12-22T11:33:21.980Z,2112
2016-12-22T11:34:21.962Z,2120
2016-12-22T11:35:21.946Z,2116
2016-12-22T11:36:21.927Z,2124
2016-12-22T11:37:21.914Z,2116
2016-12-22T11:38:21.901Z,2116
2016-12-22T11:39:21.891Z,2132
2016-12-22T11:40:21.863Z,2156
2016-12-22T11:41:21.852Z,2168
2016-12-22T11:42:21.833Z,2168
2016-12-22T11:43:21.818Z,2172
2016-12-22T11:44:21.800Z,2172
2016-12-22T11:45:21.782Z,2176
2016-12-22T11:46:21.772Z,2180
2016-12-22T11:47:21.750Z,2180
2016-12-22T11:48:21.741Z,2184
2016-12-22T11:49:21.724Z,2188
2016-12-22T11:50:21.708Z,2192
2016-12-22T11:51:21.694Z,2188
2016-12-22T11:52:21.675Z,2188
2016-12-22T11:53:21.662Z,2192
2016-12-22T11:54:21.640Z,2200
2016-12-22T11:55:21.626Z,2192
2016-12-22T11:56:21.607Z,2192
2016-12-22T11:57:21.595Z,2200
2016-12-22T11:58:21.577Z,2188
2016-12-22T11:59:21.574Z,2196
2016-12-22T12:00:21.546Z,2176
2016-12-22T12:01:21.535Z,2192
2016-12-22T12:02:21.519Z,2204
2016-12-22T12:03:21.504Z,2204
2016-12-22T12:04:21.493Z,2208
2016-12-22T12:05:21.473Z,2188
2016-12-22T12:06:21.458Z,2204
2016-12-22T12:07:21.438Z,2212
2016-12-22T12:08:21.420Z,2204
2016-12-22T12:09:21.413Z,2200
2016-12-22T12:10:21.391Z,2220
2016-12-22T12:11:21.372Z,2224
2016-12-22T12:12:21.359Z,2228
2016-12-22T12:13:21.341Z,2240
2016-12-22T12:14:21.332Z,2236
2016-12-22T12:15:21.316Z,2204
2016-12-22T12:16:21.297Z,2208
2016-12-22T12:17:21.280Z,2240
2016-12-22T12:18:21.265Z,2252
2016-12-22T12:19:21.250Z,2244
2016-12-22T12:20:21.230Z,2240
2016-12-22T12:21:21.220Z,2232
2016-12-22T12:22:21.200Z,2232
2016-12-22T12:23:21.187Z,2236
2016-12-22T12:24:21.169Z,2236
2016-12-22T12:25:21.480Z,2236
2016-12-22T12:26:21.142Z,2240
2016-12-22T12:27:21.125Z,2252
2016-12-22T12:28:21.106Z,2260
2016-12-22T12:29:21.096Z,2256
2016-12-22T12:30:21.075Z,2280
2016-12-22T12:31:21.063Z,2284
2016-12-22T12:32:21.043Z,2280
2016-12-22T12:33:21.026Z,2284
2016-12-22T12:34:21.015Z,2284
2016-12-22T12:35:20.997Z,2272
2016-12-22T12:36:20.979Z,2252
2016-12-22T12:37:20.964Z,2224
2016-12-22T12:38:20.951Z,2208
2016-12-22T12:39:20.942Z,2208
2016-12-22T12:40:20.917Z,2216
2016-12-22T12:41:20.925Z,2232
2016-12-22T12:42:20.897Z,2252
2016-12-22T12:43:20.872Z,2240
2016-12-22T12:44:20.854Z,2252
2016-12-22T12:45:20.841Z,2280
2016-12-22T12:46:20.820Z,2308
2016-12-22T12:47:20.808Z,2316
2016-12-22T12:48:20.796Z,2320
2016-12-22T12:49:21.099Z,2336
2016-12-22T12:50:20.759Z,2336
2016-12-22T12:51:20.747Z,2340
2016-12-22T12:52:20.727Z,2348
2016-12-22T12:53:20.713Z,2344
2016-12-22T12:54:20.697Z,2332
2016-12-22T12:55:20.679Z,2364
2016-12-22T12:56:20.667Z,2372
2016-12-22T12:57:20.664Z,2388
2016-12-22T12:58:20.633Z,2416
2016-12-22T12:59:20.614Z,2424
2016-12-22T13:00:20.603Z,2424
2016-12-22T13:01:20.587Z,2432
2016-12-22T13:02:20.570Z,2416
2016-12-22T13:03:20.553Z,2408
2016-12-22T13:04:20.540Z,2412
2016-12-22T13:05:20.525Z,2396
2016-12-22T13:06:20.504Z,2384
2016-12-22T13:07:20.493Z,2380
2016-12-22T13:08:20.477Z,2368
2016-12-22T13:09:20.459Z,2364
2016-12-22T13:10:20.440Z,2360
2016-12-22T13:11:20.428Z,2348
2016-12-22T13:12:20.409Z,2324
2016-12-22T13:13:20.707Z,2308
2016-12-22T13:14:20.370Z,2284
2016-12-22T13:15:20.361Z,2248
2016-12-22T13:16:20.348Z,2224
2016-12-22T13:17:20.328Z,2216
2016-12-22T13:18:20.316Z,2208
2016-12-22T13:19:20.297Z,2200
2016-12-22T13:20:20.283Z,2176
2016-12-22T13:21:20.272Z,2148
2016-12-22T13:22:20.245Z,2120
2016-12-22T13:23:20.236Z,2084
2016-12-22T13:24:20.531Z,2068
2016-12-22T13:25:20.212Z,2032
2016-12-22T13:26:20.184Z,2028
2016-12-22T13:27:20.169Z,1996
2016-12-22T13:28:20.155Z,1972
2016-12-22T13:29:20.145Z,1960
2016-12-22T13:30:20.123Z,1952
2016-12-22T13:31:20.105Z,1940
2016-12-22T13:32:20.096Z,1912
2016-12-22T13:33:20.105Z,1880
2016-12-22T13:34:20.057Z,1848
2016-12-22T13:35:20.041Z,1840
2016-12-22T13:36:20.025Z,1836
2016-12-22T13:37:20.013Z,1804
2016-12-22T13:38:20.003Z,1780
2016-12-22T13:39:19.978Z,1752
2016-12-22T13:40:19.964Z,1724
2016-12-22T13:41:19.976Z,1692
2016-12-22T13:42:19.928Z,1676
2016-12-22T13:43:20.234Z,1660
2016-12-22T13:44:19.895Z,1656
2016-12-22T13:45:19.883Z,1648
2016-12-22T13:46:19.872Z,1636
2016-12-22T13:47:19.848Z,1624
2016-12-22T13:48:19.837Z,1608
2016-12-22T13:49:19.822Z,1572
2016-12-22T13:50:19.806Z,1536
2016-12-22T13:51:19.785Z,1500
2016-12-22T13:52:19.779Z,1464
2016-12-22T13:53:19.749Z,1440
2016-12-22T13:54:19.739Z,1412
2016-12-22T13:55:19.719Z,1388
2016-12-22T13:56:19.703Z,1372
2016-12-22T13:57:19.687Z,1356
2016-12-22T13:58:19.670Z,1336
2016-12-22T13:59:19.659Z,1320
2016-12-22T14:00:19.644Z,1300
2016-12-22T14:01:19.624Z,1280
2016-12-22T14:02:19.614Z,1264
2016-12-22T14:03:19.591Z,1248
2016-12-22T14:04:19.575Z,1232